Haines City, FL

4:42 AM EDT on May 27, 2015 (GMT -0400)
Dunson Grove ACN | | Change Station
CLOSE
Current Station
Personal Weather Station
Location: Haines City, FL
Elevation: 141 ft
Nearby Weather Stations

Elev 141 ft 28.07 °N, 81.56 °W | Updated 22 minutes ago

Partly Cloudy
Partly Cloudy
74.2 °F
Feels Like 73 °F
N
1.0
Wind Variable Wind from South
Gusts 14.0 mph

Today
High -- | Low -- °F
--% Chance of Precip.
Yesterday
High -- | Low -- °F
Precip. -- in
6:31 AM 8:15 PM
Waxing Gibbous, 65% visible
Pressure 30.14 in
Visibility 10.0 miles
Clouds Scattered Clouds 2200 ft
Heat Index 73 °F
Dew Point 71 °F
Humidity 89%
Rainfall 0.00 in
Snow Depth Not available.
UV 0.0 out of 12
Pollen 5.00 out of 12
Air Quality Not available.
Flu Activity Sporadic
METAR KGIF 270753Z AUTO 08008KT 10SM SCT022 24/21 A3014 RMK AO2 SLP204 T02390211

More Conditions Fewer Conditions

Pressure 30.14 in
Visibility 10.0 miles
Clouds Scattered Clouds 2200 ft
Heat Index 73 °F
Dew Point 71 °F
Humidity 89%
Rainfall 0.00 in
Snow Depth Not available.
UV 0.0 out of 12
Pollen 5.00 out of 12
Air Quality Not available.
Flu Activity Sporadic
METAR KGIF 270753Z AUTO 08008KT 10SM SCT022 24/21 A3014 RMK AO2 SLP204 T02390211

More Conditions Fewer Conditions

10-Day Weather Forecast

Almanac

Astronomy

May. 27, 2015 Rise Set
Actual Time
Civil Twilight
Nautical Twilight
Astronomical Twilight
Moon
Length of Visible Light
Length of Day
Tomorrow will be .
, % of the Moon is Illuminated

Today's Extremes

State Highs State Lows

Community

WunderPhotos

Upload Photos

1,824,634 photos uploaded!

WunderBlogs® & News

Nearby

Air Quality

  Air Quality AQ Index Pollutant
Not available.

Snow Depth

Station Depth Elevation

Earthquake Activity

City Distance Mag. Time & Date
Minimum magnitude displayed is 2.5.

Coastal Water Temperatures

Place Temperature

Stations

Nearby Weather Stations

Station Location Temp. Windchill Dew Point Humidity Wind Precip. Elev Updated Type